Time;durP1;ratioP1;P1;durP2;ratioP2;P2;SDS_P1;SDS_P2;PMS_P1;PMS_P2;Temp;Humidity;BMP_temperature;BMP_pressure;BME280_temperature;BME280_humidity;BME280_pressure;Samples;Min_cycle;Max_cycle;Signal;HPM_P1;HPM_P2
2022/10/12 00:02:02;;;;;;;22.73;12.93;;;14.70;86.20;;;;;;5013184;28;20053;-59
2022/10/12 00:04:28;;;;;;;24.40;13.93;;;14.70;86.30;;;;;;5013236;28;20509;-59
2022/10/12 00:06:54;;;;;;;23.52;13.93;;;14.70;86.30;;;;;;5010881;28;20038;-60
2022/10/12 00:09:19;;;;;;;18.00;13.02;;;14.70;86.30;;;;;;5013674;28;20033;-60
2022/10/12 00:11:45;;;;;;;17.23;13.50;;;14.70;86.20;;;;;;5009913;28;20045;-61
2022/10/12 00:14:10;;;;;;;19.00;13.15;;;14.70;86.20;;;;;;5016191;28;20033;-60
2022/10/12 00:16:36;;;;;;;18.40;12.63;;;14.70;86.10;;;;;;5012623;28;20044;-60
2022/10/12 00:19:02;;;;;;;19.42;13.32;;;14.70;86.20;;;;;;5014750;28;20173;-61
2022/10/12 00:21:29;;;;;;;19.08;13.27;;;14.70;86.10;;;;;;5012559;28;20040;-61
2022/10/12 00:23:59;;;;;;;22.90;13.75;;;14.70;86.00;;;;;;5014938;28;20030;-60
2022/10/12 00:26:26;;;;;;;22.13;13.60;;;14.80;86.30;;;;;;5011849;28;20044;-59
2022/10/12 00:29:02;;;;;;;22.27;14.40;;;14.80;86.10;;;;;;5012916;28;21375;-60
2022/10/12 00:31:30;;;;;;;21.48;14.55;;;14.80;86.40;;;;;;5014483;28;20053;-59
2022/10/12 00:33:59;;;;;;;19.35;14.00;;;14.80;86.20;;;;;;5011733;28;20041;-59
2022/10/12 00:36:28;;;;;;;21.73;13.63;;;14.80;86.40;;;;;;5011837;28;20038;-60
2022/10/12 00:38:55;;;;;;;19.88;13.18;;;14.70;86.20;;;;;;5012569;28;20111;-58
2022/10/12 00:41:23;;;;;;;19.20;13.32;;;14.70;86.30;;;;;;5014424;28;20068;-59
2022/10/12 00:43:50;;;;;;;21.45;14.18;;;14.70;86.30;;;;;;5012234;28;21313;-61
2022/10/12 00:46:33;;;;;;;20.85;13.98;;;14.70;86.30;;;;;;5013846;28;20443;-61
2022/10/12 00:49:12;;;;;;;19.88;12.93;;;14.70;86.60;;;;;;5011749;28;20041;-59
2022/10/12 00:51:40;;;;;;;20.73;13.18;;;14.70;86.60;;;;;;5013265;28;20159;-58
2022/10/12 00:54:12;;;;;;;22.10;13.98;;;14.80;86.50;;;;;;5014601;28;20137;-60
2022/10/12 00:56:40;;;;;;;21.17;13.65;;;14.80;86.70;;;;;;5013254;28;20040;-59
2022/10/12 00:59:11;;;;;;;22.55;13.95;;;14.80;86.60;;;;;;5016328;28;20037;-60
2022/10/12 01:01:38;;;;;;;24.83;12.90;;;14.70;86.50;;;;;;5020825;28;20037;-59
2022/10/12 01:04:05;;;;;;;16.42;12.50;;;14.80;86.40;;;;;;5015441;28;20040;-60
2022/10/12 01:06:31;;;;;;;21.50;13.55;;;14.80;86.40;;;;;;5015018;28;20448;-58
2022/10/12 01:08:58;;;;;;;20.75;12.68;;;14.70;86.40;;;;;;5009864;28;20061;-60
2022/10/12 01:11:24;;;;;;;17.73;12.68;;;14.70;86.40;;;;;;5015015;28;20060;-59
2022/10/12 01:13:50;;;;;;;17.83;12.88;;;14.80;86.40;;;;;;5013510;28;20499;-60
2022/10/12 01:16:26;;;;;;;18.67;13.07;;;14.80;86.40;;;;;;5014644;28;20129;-60
2022/10/12 01:19:29;;;;;;;19.33;13.27;;;14.80;86.40;;;;;;5012140;28;20065;-60
2022/10/12 01:22:10;;;;;;;18.23;12.43;;;14.70;86.60;;;;;;5013468;28;20042;-61
2022/10/12 01:24:52;;;;;;;20.38;13.32;;;14.80;86.50;;;;;;5013445;28;20038;-58
2022/10/12 01:27:23;;;;;;;19.13;13.82;;;14.70;86.60;;;;;;5010737;28;20113;-58
2022/10/12 01:30:17;;;;;;;20.48;14.00;;;14.80;86.70;;;;;;5013711;28;20052;-58
2022/10/12 01:32:53;;;;;;;23.33;14.30;;;14.80;86.90;;;;;;5013530;28;20038;-59
2022/10/12 01:35:28;;;;;;;23.25;15.90;;;14.80;86.70;;;;;;5014076;28;20123;-59
2022/10/12 01:38:12;;;;;;;;;;;14.80;87.10;;;;;;5013209;28;20033;-59
2022/10/12 01:40:43;;;;;;;28.55;16.55;;;14.80;87.30;;;;;;5014328;28;19921;-59
2022/10/12 01:43:09;;;;;;;26.17;16.85;;;14.80;86.60;;;;;;5017664;28;20653;-58
2022/10/12 01:45:34;;;;;;;26.63;17.40;;;14.80;86.60;;;;;;5018966;28;20068;-62
2022/10/12 01:48:01;;;;;;;27.85;18.10;;;14.80;86.80;;;;;;5015988;28;20571;-59
2022/10/12 01:50:37;;;;;;;30.95;18.17;;;14.80;87.00;;;;;;5018237;28;20116;-59
2022/10/12 01:53:08;;;;;;;27.52;18.33;;;14.80;87.30;;;;;;5017347;28;20046;-60
2022/10/12 01:55:55;;;;;;;28.50;17.10;;;14.70;87.40;;;;;;5017546;28;20033;-60
2022/10/12 01:58:52;;;;;;;28.65;17.63;;;14.70;88.10;;;;;;5017304;28;20045;-60
2022/10/12 02:01:43;;;;;;;28.23;17.40;;;14.70;88.20;;;;;;5016490;28;20536;-60
2022/10/12 02:04:20;;;;;;;32.03;17.50;;;14.70;88.30;;;;;;5016152;28;20483;-59
2022/10/12 02:06:52;;;;;;;30.92;17.95;;;14.70;88.10;;;;;;4998805;28;20041;-59
2022/10/12 02:09:27;;;;;;;33.20;19.27;;;14.70;88.10;;;;;;5011688;28;20476;-59
2022/10/12 02:11:56;;;;;;;30.48;18.73;;;14.80;88.30;;;;;;5015116;28;20057;-60
2022/10/12 02:14:27;;;;;;;27.20;17.20;;;14.80;88.10;;;;;;5013920;28;20061;-60
2022/10/12 02:16:59;;;;;;;29.90;18.13;;;14.80;88.20;;;;;;5015589;28;20056;-60
2022/10/12 02:19:28;;;;;;;30.30;18.30;;;14.80;88.20;;;;;;5017569;28;20057;-60
2022/10/12 02:21:56;;;;;;;26.58;18.13;;;14.80;88.10;;;;;;5017925;28;20033;-58
2022/10/12 02:24:23;;;;;;;30.63;18.50;;;14.90;88.10;;;;;;5012562;28;20041;-59
2022/10/12 02:26:51;;;;;;;31.67;18.58;;;14.90;88.00;;;;;;5017778;28;20045;-60
2022/10/12 02:29:22;;;;;;;32.25;18.85;;;14.90;88.00;;;;;;5017458;28;20041;-60
2022/10/12 02:31:54;;;;;;;28.58;17.73;;;14.90;88.10;;;;;;5018467;28;20034;-59
2022/10/12 02:34:41;;;;;;;29.75;17.92;;;14.90;88.00;;;;;;5017188;28;20125;-58
2022/10/12 02:37:39;;;;;;;28.23;17.63;;;14.90;88.50;;;;;;5017421;28;20038;-60
2022/10/12 02:40:11;;;;;;;28.23;18.52;;;14.90;88.30;;;;;;5016523;28;20041;-59
2022/10/12 02:42:41;;;;;;;28.25;18.70;;;14.90;88.00;;;;;;5015742;28;20330;-60
2022/10/12 02:45:09;;;;;;;27.63;18.63;;;14.90;88.00;;;;;;5015585;28;20045;-61
2022/10/12 02:47:36;;;;;;;25.60;17.60;;;14.90;88.00;;;;;;5015139;28;20590;-62
2022/10/12 02:50:03;;;;;;;34.38;18.52;;;14.90;88.10;;;;;;5017027;28;20720;-61
2022/10/12 02:52:30;;;;;;;31.13;18.40;;;14.90;88.20;;;;;;5011305;28;20038;-61
2022/10/12 02:54:56;;;;;;;37.78;21.20;;;14.90;88.20;;;;;;5013613;28;20041;-62
2022/10/12 02:57:21;;;;;;;34.90;19.95;;;14.90;88.20;;;;;;5014351;28;20037;-62
2022/10/12 02:59:47;;;;;;;33.00;19.63;;;14.90;88.20;;;;;;5016100;28;20033;-62
2022/10/12 03:02:12;;;;;;;34.63;19.88;;;14.90;88.20;;;;;;5014360;28;20045;-62
2022/10/12 03:04:38;;;;;;;31.02;19.30;;;14.90;88.40;;;;;;5015770;28;20531;-61
2022/10/12 03:07:04;;;;;;;34.45;19.23;;;14.90;88.40;;;;;;5017022;28;20421;-61
2022/10/12 03:09:29;;;;;;;30.67;18.77;;;14.90;88.40;;;;;;5012610;28;20069;-61
2022/10/12 03:11:55;;;;;;;32.05;19.30;;;14.90;88.40;;;;;;5012011;28;20037;-60
2022/10/12 03:14:21;;;;;;;37.00;20.25;;;15.00;88.50;;;;;;5016272;28;20091;-62
2022/10/12 03:16:47;;;;;;;35.80;19.35;;;15.00;88.40;;;;;;5015791;28;20480;-61
2022/10/12 03:19:13;;;;;;;36.15;19.65;;;15.00;88.30;;;;;;5014866;28;20160;-61
2022/10/12 03:21:39;;;;;;;35.20;20.52;;;15.10;88.30;;;;;;5016984;28;20105;-60
2022/10/12 03:24:05;;;;;;;36.15;20.75;;;15.00;88.10;;;;;;5016288;28;20469;-62
2022/10/12 03:26:30;;;;;;;34.75;20.83;;;15.00;88.10;;;;;;5013047;28;20096;-60
2022/10/12 03:28:56;;;;;;;31.63;20.35;;;15.00;88.20;;;;;;5011828;28;20457;-61
2022/10/12 03:31:22;;;;;;;30.80;18.30;;;15.00;88.30;;;;;;5014585;28;20049;-61
2022/10/12 03:33:47;;;;;;;35.40;21.48;;;15.00;88.50;;;;;;5010971;28;20175;-61
2022/10/12 03:36:13;;;;;;;33.30;19.38;;;14.90;88.50;;;;;;5015383;28;20524;-62
2022/10/12 03:38:38;;;;;;;35.05;19.42;;;15.00;88.60;;;;;;5014421;28;20436;-60
2022/10/12 03:41:04;;;;;;;33.13;20.23;;;15.00;88.70;;;;;;5013462;28;20034;-60
2022/10/12 03:43:29;;;;;;;31.00;18.90;;;14.90;88.60;;;;;;5014773;28;20033;-60
2022/10/12 03:45:55;;;;;;;29.63;18.70;;;15.00;88.60;;;;;;5013075;28;20060;-62
2022/10/12 03:48:21;;;;;;;28.38;18.52;;;15.00;88.50;;;;;;5015276;28;20277;-62
2022/10/12 03:50:50;;;;;;;33.65;20.27;;;15.10;88.60;;;;;;5012549;28;20073;-62
2022/10/12 03:53:17;;;;;;;34.05;18.38;;;15.00;88.50;;;;;;5014506;28;20052;-62
2022/10/12 03:55:42;;;;;;;30.63;19.25;;;15.10;88.50;;;;;;5015710;28;20064;-61
2022/10/12 03:58:08;;;;;;;35.92;18.92;;;15.10;88.50;;;;;;5013211;28;20144;-62
2022/10/12 04:00:34;;;;;;;27.25;18.13;;;15.00;88.50;;;;;;5012621;28;20049;-61
2022/10/12 04:03:01;;;;;;;28.20;18.23;;;15.10;88.50;;;;;;5013498;28;20052;-61
2022/10/12 04:05:27;;;;;;;28.88;17.48;;;15.10;88.30;;;;;;5016072;28;20045;-59
2022/10/12 04:07:53;;;;;;;29.33;18.48;;;15.10;88.30;;;;;;5013152;28;20045;-62
2022/10/12 04:10:18;;;;;;;31.13;18.70;;;15.20;88.30;;;;;;5015635;28;20054;-60
2022/10/12 04:12:44;;;;;;;29.35;19.08;;;15.20;88.20;;;;;;5009552;28;20112;-60
2022/10/12 04:15:11;;;;;;;29.58;18.92;;;15.20;88.10;;;;;;5011992;28;20065;-61
2022/10/12 04:17:36;;;;;;;33.38;21.80;;;15.20;88.10;;;;;;5015181;28;20091;-62
2022/10/12 04:20:02;;;;;;;33.58;20.00;;;15.20;88.00;;;;;;5015254;28;20510;-61
2022/10/12 04:22:28;;;;;;;33.33;20.90;;;15.20;88.00;;;;;;5013783;28;20033;-60
2022/10/12 04:24:54;;;;;;;30.55;19.58;;;15.20;88.00;;;;;;5014309;28;21872;-62
2022/10/12 04:27:20;;;;;;;30.25;18.58;;;15.20;88.00;;;;;;5010422;28;20036;-60
2022/10/12 04:29:45;;;;;;;33.63;20.50;;;15.20;88.10;;;;;;5013320;28;20690;-61
2022/10/12 04:32:11;;;;;;;33.10;19.33;;;15.20;88.00;;;;;;5011743;28;20041;-62
2022/10/12 04:34:36;;;;;;;32.58;18.88;;;15.20;88.00;;;;;;5014104;28;20065;-61
2022/10/12 04:37:02;;;;;;;33.00;20.85;;;15.20;88.00;;;;;;5013847;28;20414;-60
2022/10/12 04:39:28;;;;;;;35.85;20.20;;;15.20;88.00;;;;;;5015473;28;20087;-60
2022/10/12 04:41:54;;;;;;;33.53;20.63;;;15.20;87.80;;;;;;5012556;28;20033;-61
2022/10/12 04:44:20;;;;;;;33.05;20.35;;;15.20;87.90;;;;;;5013618;28;20071;-62
2022/10/12 04:46:46;;;;;;;32.17;20.45;;;15.20;88.00;;;;;;5012385;28;20195;-62
2022/10/12 04:49:12;;;;;;;34.85;20.17;;;15.10;88.10;;;;;;5014303;28;20092;-61
2022/10/12 04:51:37;;;;;;;36.40;21.10;;;15.10;88.30;;;;;;5013275;28;20037;-60
2022/10/12 04:54:03;;;;;;;32.47;20.70;;;15.10;88.30;;;;;;5012768;28;20057;-61
2022/10/12 04:56:29;;;;;;;35.78;20.17;;;15.10;88.30;;;;;;5012977;28;20038;-62
2022/10/12 04:58:54;;;;;;;31.33;20.30;;;15.10;88.40;;;;;;5014816;28;20095;-59
2022/10/12 05:01:20;;;;;;;35.58;20.90;;;15.10;88.40;;;;;;5013682;28;20037;-61
2022/10/12 05:03:46;;;;;;;35.10;20.35;;;15.00;88.30;;;;;;5014341;28;20058;-62
2022/10/12 05:06:11;;;;;;;31.63;20.73;;;15.10;89.20;;;;;;5011536;28;20044;-61
2022/10/12 05:08:37;;;;;;;33.78;19.65;;;15.00;88.50;;;;;;5014024;28;20045;-59
2022/10/12 05:11:03;;;;;;;34.72;21.00;;;15.00;88.60;;;;;;5012721;28;20547;-61
2022/10/12 05:13:28;;;;;;;33.08;20.92;;;14.90;88.60;;;;;;5012229;28;20045;-60
2022/10/12 05:15:54;;;;;;;30.02;19.67;;;14.90;88.80;;;;;;5014106;28;20045;-60
2022/10/12 05:18:20;;;;;;;32.55;19.77;;;14.90;88.90;;;;;;5016742;28;20049;-61
2022/10/12 05:20:46;;;;;;;33.38;20.70;;;14.90;89.00;;;;;;5017452;28;20172;-61
2022/10/12 05:23:11;;;;;;;29.33;18.98;;;14.90;89.00;;;;;;5015607;28;20051;-60
2022/10/12 05:25:37;;;;;;;33.45;20.08;;;14.90;89.10;;;;;;5017748;28;20042;-61
2022/10/12 05:28:03;;;;;;;31.48;19.92;;;14.90;89.20;;;;;;5016870;28;20052;-61
2022/10/12 05:30:29;;;;;;;30.75;20.50;;;14.90;89.20;;;;;;5015938;28;20052;-62
2022/10/12 05:32:55;;;;;;;32.72;20.80;;;14.90;89.00;;;;;;5015693;28;20405;-62
2022/10/12 05:35:21;;;;;;;32.03;20.67;;;14.90;89.10;;;;;;5017717;28;20155;-62
2022/10/12 05:37:46;;;;;;;32.30;21.13;;;14.90;89.00;;;;;;5017467;28;20394;-61
2022/10/12 05:40:12;;;;;;;36.28;21.10;;;14.90;89.00;;;;;;5016468;28;20050;-60
2022/10/12 05:42:38;;;;;;;31.75;20.67;;;14.80;89.10;;;;;;5016841;28;20156;-61
2022/10/12 05:45:05;;;;;;;30.58;19.67;;;14.80;89.20;;;;;;5014968;28;21018;-61
2022/10/12 05:47:30;;;;;;;39.92;21.92;;;14.80;89.30;;;;;;5015998;28;20049;-61
2022/10/12 05:49:56;;;;;;;33.60;20.30;;;14.70;89.50;;;;;;5016346;28;20030;-60
2022/10/12 05:52:22;;;;;;;35.58;21.25;;;14.70;89.50;;;;;;5017024;28;20041;-62
2022/10/12 05:54:48;;;;;;;30.25;19.77;;;14.70;89.70;;;;;;5014469;28;20095;-61
2022/10/12 05:57:14;;;;;;;33.03;20.83;;;14.70;89.90;;;;;;5016619;28;20038;-62
2022/10/12 05:59:41;;;;;;;37.42;20.60;;;14.70;89.90;;;;;;5018477;28;20044;-59
2022/10/12 06:02:07;;;;;;;33.42;20.70;;;14.70;90.00;;;;;;5013847;28;20634;-62
2022/10/12 06:04:32;;;;;;;30.30;18.30;;;14.70;90.00;;;;;;5014397;28;20112;-60
2022/10/12 06:06:58;;;;;;;37.17;20.25;;;14.70;90.00;;;;;;5015138;28;20590;-62
2022/10/12 06:09:23;;;;;;;32.72;20.17;;;14.80;90.00;;;;;;5014400;28;20036;-62
2022/10/12 06:11:49;;;;;;;32.17;19.80;;;14.80;90.00;;;;;;5016364;28;20474;-62
2022/10/12 06:14:15;;;;;;;32.03;19.27;;;14.80;89.90;;;;;;5018016;28;20442;-60
2022/10/12 06:16:40;;;;;;;32.60;20.42;;;14.80;89.90;;;;;;5015389;28;20071;-62
2022/10/12 06:19:06;;;;;;;32.67;21.25;;;14.90;89.90;;;;;;5015428;28;20356;-61
2022/10/12 06:21:31;;;;;;;35.08;20.48;;;14.90;89.70;;;;;;5016864;28;20165;-61
2022/10/12 06:23:57;;;;;;;31.30;19.98;;;14.90;89.50;;;;;;5016174;28;20534;-61
2022/10/12 06:26:23;;;;;;;33.83;20.45;;;14.90;89.50;;;;;;5014866;28;20532;-61
2022/10/12 06:28:49;;;;;;;33.63;19.80;;;14.90;89.50;;;;;;5016498;28;20046;-61
2022/10/12 06:31:14;;;;;;;34.00;20.33;;;15.00;89.50;;;;;;5013781;28;20057;-62
2022/10/12 06:33:40;;;;;;;31.23;19.48;;;14.90;89.50;;;;;;5014283;28;20270;-62
2022/10/12 06:36:06;;;;;;;31.40;19.17;;;14.90;89.50;;;;;;5013405;28;20045;-61
2022/10/12 06:38:31;;;;;;;29.90;18.67;;;14.90;89.60;;;;;;5016917;28;20073;-61
2022/10/12 06:40:57;;;;;;;29.13;18.90;;;14.90;89.70;;;;;;5013810;28;20041;-62
2022/10/12 06:43:23;;;;;;;33.42;19.75;;;15.00;89.60;;;;;;5015485;28;20128;-63
2022/10/12 06:45:49;;;;;;;29.02;18.13;;;15.00;89.50;;;;;;5017071;28;20062;-62
2022/10/12 06:48:15;;;;;;;32.13;19.05;;;15.10;89.50;;;;;;5015945;28;20041;-63
2022/10/12 06:50:40;;;;;;;31.40;19.50;;;15.10;89.40;;;;;;5016253;28;20354;-63
2022/10/12 06:53:06;;;;;;;31.65;19.40;;;15.10;89.20;;;;;;5014962;28;20056;-62
2022/10/12 06:55:31;;;;;;;32.65;19.50;;;15.10;89.20;;;;;;5015896;28;20041;-62
2022/10/12 06:57:57;;;;;;;31.15;19.80;;;15.10;89.10;;;;;;5015259;28;20048;-63
2022/10/12 07:00:23;;;;;;;31.27;19.23;;;15.10;89.20;;;;;;5016911;28;20038;-62
2022/10/12 07:02:50;;;;;;;29.85;18.50;;;15.10;89.30;;;;;;5014288;28;20045;-62
2022/10/12 07:05:15;;;;;;;30.52;19.58;;;15.10;89.20;;;;;;5017885;28;20041;-63
2022/10/12 07:07:41;;;;;;;31.98;20.45;;;15.20;89.30;;;;;;5014193;28;20037;-62
2022/10/12 07:10:07;;;;;;;31.83;20.70;;;15.20;89.30;;;;;;5014847;28;20051;-62
2022/10/12 07:12:38;;;;;;;32.70;19.30;;;15.20;89.20;;;;;;5013895;28;20037;-62
2022/10/12 07:15:04;;;;;;;28.13;18.77;;;15.20;89.20;;;;;;5013059;28;20037;-61
2022/10/12 07:17:30;;;;;;;27.50;18.55;;;15.10;89.30;;;;;;5017429;28;20227;-60
2022/10/12 07:19:56;;;;;;;34.53;19.30;;;15.20;89.50;;;;;;5013855;28;20038;-62
2022/10/12 07:22:21;;;;;;;29.30;19.60;;;15.10;89.40;;;;;;5014475;28;20025;-61
2022/10/12 07:24:47;;;;;;;32.70;18.95;;;15.10;89.40;;;;;;5016661;28;20037;-61
2022/10/12 07:27:13;;;;;;;30.75;19.05;;;15.20;89.50;;;;;;5010669;28;20037;-61
2022/10/12 07:29:39;;;;;;;29.70;19.17;;;15.20;89.50;;;;;;5015409;28;20069;-61
2022/10/12 07:32:05;;;;;;;28.73;18.38;;;15.20;89.30;;;;;;5014778;28;20041;-62
2022/10/12 07:34:31;;;;;;;31.58;19.60;;;15.20;89.30;;;;;;5013270;28;20033;-62
2022/10/12 07:36:57;;;;;;;27.67;19.17;;;15.20;89.30;;;;;;5012757;28;20466;-61
2022/10/12 07:39:23;;;;;;;37.60;19.88;;;15.30;89.30;;;;;;5014636;28;20030;-61
2022/10/12 07:41:49;;;;;;;30.70;19.23;;;15.30;89.10;;;;;;5014945;28;20448;-60
2022/10/12 07:44:15;;;;;;;32.25;19.83;;;15.30;89.10;;;;;;5014398;28;20112;-62
2022/10/12 07:46:40;;;;;;;29.45;18.85;;;15.30;89.10;;;;;;5015099;28;20589;-62
2022/10/12 07:49:06;;;;;;;32.17;19.40;;;15.30;89.00;;;;;;5014949;28;20041;-62
2022/10/12 07:51:32;;;;;;;30.85;19.63;;;15.40;89.20;;;;;;5017521;28;20041;-62
2022/10/12 07:53:59;;;;;;;27.33;18.05;;;15.40;89.20;;;;;;5017855;28;20044;-61
2022/10/12 07:56:25;;;;;;;28.02;18.02;;;15.40;89.20;;;;;;5013981;28;20096;-63
2022/10/12 07:58:55;;;;;;;29.27;19.17;;;15.50;89.20;;;;;;5017182;28;20107;-61
2022/10/12 08:01:23;;;;;;;31.88;19.65;;;15.50;89.00;;;;;;5013185;28;20034;-61
2022/10/12 08:03:50;;;;;;;26.70;18.30;;;15.50;88.80;;;;;;5016246;28;20050;-62
2022/10/12 08:06:19;;;;;;;31.17;18.35;;;15.60;88.80;;;;;;5017947;28;20047;-62
2022/10/12 08:08:45;;;;;;;29.67;18.88;;;15.60;89.00;;;;;;5016009;28;20052;-61
2022/10/12 08:11:11;;;;;;;34.67;18.98;;;15.60;89.00;;;;;;5015067;28;20041;-62
2022/10/12 08:13:38;;;;;;;26.83;18.90;;;15.60;89.00;;;;;;5017264;28;20045;-61
2022/10/12 08:16:05;;;;;;;28.15;18.25;;;15.70;88.80;;;;;;5013160;28;20045;-61
2022/10/12 08:18:31;;;;;;;30.55;18.85;;;15.70;88.70;;;;;;5014746;28;20056;-63
2022/10/12 08:20:57;;;;;;;27.08;19.00;;;15.80;88.60;;;;;;5014248;28;20120;-61
2022/10/12 08:23:23;;;;;;;29.42;18.95;;;15.80;88.60;;;;;;5013711;28;21506;-61
2022/10/12 08:25:56;;;;;;;31.98;18.52;;;15.90;88.50;;;;;;5013824;28;20048;-62
2022/10/12 08:28:22;;;;;;;30.88;17.98;;;15.90;88.30;;;;;;5010923;28;20040;-62
2022/10/12 08:30:49;;;;;;;24.75;17.85;;;15.90;88.10;;;;;;5014038;28;20138;-62
2022/10/12 08:33:15;;;;;;;28.08;18.48;;;16.00;88.00;;;;;;4999826;28;20049;-61
2022/10/12 08:35:41;;;;;;;28.73;18.00;;;16.00;87.80;;;;;;5006235;28;20064;-62
2022/10/12 08:38:08;;;;;;;28.17;18.73;;;16.00;87.60;;;;;;5009830;28;20417;-62
2022/10/12 08:40:44;;;;;;;26.95;17.65;;;16.10;87.60;;;;;;5010171;28;20041;-63
2022/10/12 08:43:37;;;;;;;27.48;18.33;;;16.10;87.50;;;;;;5006838;28;20458;-61
2022/10/12 08:46:04;;;;;;;26.65;18.25;;;16.10;87.30;;;;;;5007526;28;20127;-62
2022/10/12 08:49:00;;;;;;;26.60;18.17;;;16.20;87.40;;;;;;5007189;28;20532;-63
2022/10/12 08:51:30;;;;;;;31.13;18.52;;;16.20;87.30;;;;;;5002121;28;20394;-61
2022/10/12 08:53:58;;;;;;;29.83;18.60;;;16.20;87.20;;;;;;5009578;28;20049;-61
2022/10/12 08:56:24;;;;;;;29.70;18.52;;;16.30;87.00;;;;;;5012629;28;20452;-61
2022/10/12 08:58:51;;;;;;;32.60;19.65;;;16.30;86.80;;;;;;5015717;28;20038;-62
2022/10/12 09:01:29;;;;;;;29.30;18.70;;;16.30;86.80;;;;;;5016834;28;20091;-61
2022/10/12 09:04:32;;;;;;;29.52;18.63;;;16.30;86.60;;;;;;5017009;28;20041;-62
2022/10/12 09:07:16;;;;;;;26.25;17.73;;;16.40;86.70;;;;;;5013316;28;20034;-62
2022/10/12 09:09:54;;;;;;;28.83;18.73;;;16.40;86.60;;;;;;5014337;28;20169;-61
2022/10/12 09:12:40;;;;;;;29.10;17.30;;;16.50;86.70;;;;;;5016929;28;20044;-61
2022/10/12 09:15:27;;;;;;;26.75;18.35;;;16.50;86.70;;;;;;5016060;28;20033;-62
2022/10/12 09:17:57;;;;;;;27.83;17.88;;;16.50;86.40;;;;;;5012589;28;20072;-62
2022/10/12 09:20:29;;;;;;;27.85;17.60;;;16.50;86.40;;;;;;5016252;28;20041;-62
2022/10/12 09:23:00;;;;;;;26.33;18.00;;;16.60;86.50;;;;;;5016464;28;21651;-62
2022/10/12 09:25:27;;;;;;;27.35;17.60;;;16.60;86.40;;;;;;5016363;28;20034;-63
2022/10/12 09:27:55;;;;;;;25.55;16.63;;;16.70;86.50;;;;;;5016230;28;20030;-63
2022/10/12 09:30:21;;;;;;;25.08;17.45;;;16.70;86.20;;;;;;5015798;28;20037;-63
2022/10/12 09:33:05;;;;;;;28.85;17.58;;;16.80;87.10;;;;;;5014769;28;20596;-63
2022/10/12 09:35:32;;;;;;;25.75;16.75;;;16.80;85.60;;;;;;5017531;28;20041;-62
2022/10/12 09:37:59;;;;;;;24.75;16.23;;;16.90;86.00;;;;;;5016651;28;20033;-63
2022/10/12 09:40:33;;;;;;;23.95;16.38;;;16.90;85.90;;;;;;5015865;28;20038;-62
2022/10/12 09:43:01;;;;;;;25.98;16.13;;;17.00;85.20;;;;;;5011581;28;20046;-61
2022/10/12 09:45:31;;;;;;;25.30;15.85;;;17.10;85.50;;;;;;5014663;28;20319;-63
2022/10/12 09:48:13;;;;;;;21.80;14.88;;;17.10;85.10;;;;;;5015203;28;20126;-63
2022/10/12 09:50:43;;;;;;;24.75;16.30;;;17.20;84.40;;;;;;5014235;28;20041;-63
2022/10/12 09:53:23;;;;;;;28.67;16.40;;;17.20;84.30;;;;;;4997233;28;20044;-63
2022/10/12 09:56:20;;;;;;;23.60;15.10;;;17.20;84.00;;;;;;5014906;28;20052;-63
2022/10/12 09:58:55;;;;;;;22.25;15.48;;;17.30;83.80;;;;;;5015075;28;20038;-61
2022/10/12 10:01:26;;;;;;;22.08;15.30;;;17.30;84.10;;;;;;5015178;28;20464;-62
2022/10/12 10:04:13;;;;;;;21.35;14.93;;;17.30;84.00;;;;;;4999621;28;20128;-63
2022/10/12 10:06:42;;;;;;;21.52;15.05;;;17.40;83.10;;;;;;5016674;28;20038;-62
2022/10/12 10:09:33;;;;;;;21.95;14.20;;;17.40;83.90;;;;;;5018239;28;20045;-61
2022/10/12 10:12:26;;;;;;;19.60;13.38;;;17.40;83.40;;;;;;5017838;28;20041;-62
2022/10/12 10:14:55;;;;;;;22.00;13.63;;;17.50;83.10;;;;;;5017257;28;20044;-62
2022/10/12 10:17:30;;;;;;;18.52;13.13;;;17.50;83.40;;;;;;5019172;28;20029;-61
2022/10/12 10:19:58;;;;;;;20.55;12.95;;;17.60;82.90;;;;;;5018785;28;20034;-61
2022/10/12 10:22:24;;;;;;;19.95;13.20;;;17.70;83.00;;;;;;5015130;28;20034;-63
2022/10/12 10:24:54;;;;;;;18.48;12.57;;;17.70;82.80;;;;;;5019208;28;20030;-62
2022/10/12 10:27:30;;;;;;;20.58;13.00;;;17.70;82.70;;;;;;5018647;28;20045;-60
2022/10/12 10:30:16;;;;;;;19.58;13.07;;;17.70;82.00;;;;;;5016182;28;20052;-62
2022/10/12 10:32:46;;;;;;;18.10;12.73;;;17.70;81.50;;;;;;5003756;28;20030;-63
2022/10/12 10:35:11;;;;;;;17.90;10.90;;;17.80;82.20;;;;;;5016948;28;20033;-62
2022/10/12 10:37:46;;;;;;;15.15;9.35;;;17.80;82.30;;;;;;5017859;28;20535;-63
2022/10/12 10:40:32;;;;;;;19.58;11.73;;;17.80;81.50;;;;;;5017684;28;20612;-62
2022/10/12 10:43:03;;;;;;;16.70;10.35;;;17.90;80.50;;;;;;5017193;28;20061;-63
2022/10/12 10:45:43;;;;;;;13.48;9.98;;;17.90;81.00;;;;;;5020336;28;20053;-63
2022/10/12 10:48:13;;;;;;;16.00;10.10;;;17.90;80.90;;;;;;5019058;28;20112;-62
2022/10/12 10:50:42;;;;;;;15.48;10.80;;;17.90;80.90;;;;;;5017509;28;20540;-63
2022/10/12 10:53:25;;;;;;;15.10;10.07;;;17.90;80.50;;;;;;5018066;28;20077;-63
2022/10/12 10:56:07;;;;;;;14.23;9.30;;;17.90;80.00;;;;;;5018661;28;20045;-62
2022/10/12 10:58:48;;;;;;;10.80;8.27;;;17.90;80.00;;;;;;5015388;28;20033;-63
2022/10/12 11:01:16;;;;;;;14.27;8.75;;;18.00;79.80;;;;;;5017005;28;20038;-61
2022/10/12 11:03:56;;;;;;;14.20;8.75;;;18.00;79.80;;;;;;5016286;28;20088;-63
2022/10/12 11:06:25;;;;;;;12.82;8.63;;;18.00;78.90;;;;;;5017200;28;20455;-62
2022/10/12 11:08:59;;;;;;;11.00;8.23;;;18.00;79.10;;;;;;5014190;28;20048;-63
2022/10/12 11:11:27;;;;;;;15.20;8.00;;;18.00;78.70;;;;;;5017435;28;20095;-62
2022/10/12 11:14:01;;;;;;;12.00;8.10;;;18.00;78.90;;;;;;5018499;28;20413;-63
2022/10/12 11:16:35;;;;;;;13.63;7.88;;;18.00;78.70;;;;;;5016927;28;20069;-61
2022/10/12 11:19:11;;;;;;;12.15;7.45;;;17.90;78.60;;;;;;5018170;28;20045;-62
2022/10/12 11:21:56;;;;;;;12.90;8.02;;;17.90;78.90;;;;;;5019061;28;20167;-62
2022/10/12 11:24:40;;;;;;;14.98;8.00;;;17.90;78.40;;;;;;5019280;28;20436;-62
2022/10/12 11:27:12;;;;;;;16.90;8.68;;;17.90;78.00;;;;;;5015335;28;20072;-63
2022/10/12 11:29:38;;;;;;;14.65;8.35;;;18.00;78.90;;;;;;5019080;28;20037;-63
2022/10/12 11:32:17;;;;;;;11.07;7.35;;;18.00;78.60;;;;;;5019844;28;20046;-63
2022/10/12 11:34:50;;;;;;;13.30;7.35;;;18.00;77.50;;;;;;5018202;28;20062;-62
2022/10/12 11:37:22;;;;;;;8.98;6.85;;;18.00;78.50;;;;;;5018531;28;20555;-63
2022/10/12 11:39:52;;;;;;;12.60;6.82;;;18.00;77.90;;;;;;5017208;28;20058;-62
2022/10/12 11:42:34;;;;;;;13.05;7.20;;;18.00;77.90;;;;;;5016547;28;20566;-63
2022/10/12 11:45:03;;;;;;;12.00;6.90;;;18.00;77.20;;;;;;5017059;28;20540;-63
2022/10/12 11:47:29;;;;;;;11.32;7.05;;;18.00;77.60;;;;;;5017216;28;20057;-63
2022/10/12 11:50:06;;;;;;;12.10;7.15;;;18.10;77.50;;;;;;5015914;28;20060;-62
2022/10/12 11:52:45;;;;;;;9.68;6.70;;;18.10;77.20;;;;;;5017494;28;20041;-62
2022/10/12 11:55:37;;;;;;;10.98;6.30;;;18.10;76.50;;;;;;5016002;28;20062;-62
2022/10/12 11:58:20;;;;;;;14.45;8.20;;;18.20;76.10;;;;;;5017195;28;20493;-62
2022/10/12 12:00:58;;;;;;;11.93;7.35;;;18.20;75.70;;;;;;5016134;28;20640;-62
2022/10/12 12:03:37;;;;;;;12.57;7.50;;;18.20;76.60;;;;;;5015153;28;20026;-63
2022/10/12 12:06:28;;;;;;;12.80;7.82;;;18.20;76.30;;;;;;5015968;28;20451;-61
2022/10/12 12:09:02;;;;;;;12.93;7.80;;;18.20;76.20;;;;;;5016016;28;20038;-63
2022/10/12 12:11:33;;;;;;;11.13;7.18;;;18.20;75.70;;;;;;5017400;28;20658;-62
2022/10/12 12:14:20;;;;;;;11.68;7.70;;;18.20;76.60;;;;;;5017233;28;20510;-62
2022/10/12 12:16:47;;;;;;;10.20;7.45;;;18.30;75.70;;;;;;5014397;28;20629;-63
2022/10/12 12:19:36;;;;;;;15.25;7.88;;;18.30;76.80;;;;;;5017548;28;20049;-63
2022/10/12 12:22:25;;;;;;;14.93;8.20;;;18.30;76.60;;;;;;5004812;28;20034;-62
2022/10/12 12:25:04;;;;;;;9.80;7.15;;;18.40;76.00;;;;;;5015600;28;20059;-62
2022/10/12 12:27:40;;;;;;;14.68;7.63;;;18.40;76.00;;;;;;5012547;28;20072;-63
2022/10/12 12:30:18;;;;;;;12.05;7.90;;;18.50;75.90;;;;;;5020202;28;20037;-62
2022/10/12 12:32:48;;;;;;;12.75;7.60;;;18.50;75.20;;;;;;5014920;28;20048;-61
2022/10/12 12:35:31;;;;;;;11.95;7.70;;;18.50;75.60;;;;;;5016775;28;20033;-62
2022/10/12 12:38:23;;;;;;;12.88;7.80;;;18.50;75.10;;;;;;5016480;28;20033;-62
2022/10/12 12:41:11;;;;;;;14.70;7.38;;;18.50;74.90;;;;;;5013606;28;20393;-62
2022/10/12 12:43:56;;;;;;;11.70;7.45;;;18.50;74.50;;;;;;5017184;28;20079;-62
2022/10/12 12:46:25;;;;;;;9.57;7.28;;;18.50;76.00;;;;;;5018592;28;20033;-61